createdAt,value
2022-08-20T00:00:26.141Z,22.17
2022-08-20T00:02:55.926Z,22.43
2022-08-20T00:05:28.747Z,23.07
2022-08-20T00:07:56.859Z,20.83
2022-08-20T00:10:25.027Z,18.97
2022-08-20T00:12:54.717Z,21.17
2022-08-20T00:15:26.390Z,19.33
2022-08-20T00:17:54.654Z,20.73
2022-08-20T00:20:24.842Z,19.60
2022-08-20T00:22:53.080Z,21.63
2022-08-20T00:25:20.879Z,20.77
2022-08-20T00:27:48.551Z,21.27
2022-08-20T00:30:18.056Z,20.93
2022-08-20T00:32:47.797Z,22.53
2022-08-20T00:35:16.086Z,22.73
2022-08-20T00:37:45.161Z,20.67
2022-08-20T00:40:22.913Z,21.30
2022-08-20T00:42:55.351Z,20.43
2022-08-20T00:45:25.773Z,21.63
2022-08-20T00:47:55.701Z,22.20
2022-08-20T00:50:30.563Z,21.73
2022-08-20T00:52:58.251Z,23.50
2022-08-20T00:55:31.462Z,22.30
2022-08-20T00:58:03.199Z,19.97
2022-08-20T01:00:38.133Z,21.37
2022-08-20T01:03:09.630Z,22.07
2022-08-20T01:05:37.793Z,21.63
2022-08-20T01:08:05.912Z,23.60
2022-08-20T01:10:38.242Z,23.67
2022-08-20T01:13:10.001Z,23.10
2022-08-20T01:15:43.509Z,22.57
2022-08-20T01:18:13.753Z,23.37
2022-08-20T01:20:44.743Z,24.47
2022-08-20T01:23:34.717Z,24.30
2022-08-20T01:26:09.596Z,23.70
2022-08-20T01:28:43.605Z,21.90
2022-08-20T01:31:16.397Z,21.63
2022-08-20T01:33:45.589Z,22.57
2022-08-20T01:36:16.099Z,22.03
2022-08-20T01:38:51.932Z,23.37
2022-08-20T01:41:40.411Z,24.27
2022-08-20T01:44:11.748Z,20.63
2022-08-20T01:46:48.963Z,21.30
2022-08-20T01:49:23.454Z,20.53
2022-08-20T01:51:52.895Z,22.83
2022-08-20T01:54:21.517Z,19.67
2022-08-20T01:56:57.797Z,21.27
2022-08-20T01:59:25.991Z,21.90
2022-08-20T02:01:54.945Z,19.10
2022-08-20T02:04:22.871Z,20.07
2022-08-20T02:06:56.497Z,20.20
2022-08-20T02:09:25.895Z,17.70
2022-08-20T02:11:55.587Z,19.43
2022-08-20T02:14:23.247Z,18.30
2022-08-20T02:16:55.066Z,18.80
2022-08-20T02:19:26.667Z,17.03
2022-08-20T02:21:58.962Z,15.87
2022-08-20T02:24:27.299Z,17.03
2022-08-20T02:26:56.963Z,17.80
2022-08-20T02:29:26.113Z,18.57
2022-08-20T02:32:25.126Z,17.07
2022-08-20T02:34:42.957Z,15.27
2022-08-20T02:37:11.991Z,18.10
2022-08-20T02:39:41.010Z,15.50
2022-08-20T02:42:12.177Z,16.77
2022-08-20T02:44:40.537Z,20.13
2022-08-20T02:47:09.245Z,15.43
2022-08-20T02:49:37.302Z,18.87
2022-08-20T02:52:05.476Z,16.47
2022-08-20T02:54:33.485Z,18.43
2022-08-20T02:57:02.311Z,14.67
2022-08-20T02:59:31.976Z,14.53
2022-08-20T03:02:00.773Z,15.10
2022-08-20T03:04:30.334Z,15.53
2022-08-20T03:06:58.123Z,15.80
2022-08-20T03:09:26.126Z,16.70
2022-08-20T03:11:54.391Z,15.60
2022-08-20T03:14:22.629Z,17.37
2022-08-20T03:16:52.018Z,15.70
2022-08-20T03:19:20.136Z,14.57
2022-08-20T03:21:47.796Z,13.03
2022-08-20T03:24:15.947Z,13.90
2022-08-20T03:26:43.738Z,14.43
2022-08-20T03:29:12.392Z,15.30
2022-08-20T03:31:40.058Z,16.23
2022-08-20T03:34:09.715Z,15.17
2022-08-20T03:36:37.421Z,14.07
2022-08-20T03:39:11.398Z,13.80
2022-08-20T03:41:39.479Z,14.13
2022-08-20T03:44:07.469Z,13.27
2022-08-20T03:46:35.982Z,15.40
2022-08-20T03:49:04.872Z,16.87
2022-08-20T03:51:56.316Z,14.23
2022-08-20T03:54:22.635Z,15.10
2022-08-20T03:56:50.675Z,15.40
2022-08-20T03:59:18.363Z,14.33
2022-08-20T04:01:47.025Z,14.00
2022-08-20T04:04:15.996Z,13.83
2022-08-20T04:06:47.465Z,14.77
2022-08-20T04:09:16.131Z,13.40
2022-08-20T04:11:44.252Z,12.87
2022-08-20T04:14:17.382Z,15.20
2022-08-20T04:16:48.862Z,14.17
2022-08-20T04:19:17.514Z,15.53
2022-08-20T04:21:48.850Z,15.63
2022-08-20T04:24:24.518Z,15.00
2022-08-20T04:27:02.527Z,14.47
2022-08-20T04:29:32.254Z,14.83
2022-08-20T04:32:02.730Z,14.60
2022-08-20T04:34:34.018Z,14.07
2022-08-20T04:37:03.473Z,13.57
2022-08-20T04:39:31.286Z,13.80
2022-08-20T04:41:58.266Z,14.50
2022-08-20T04:44:26.212Z,12.77
2022-08-20T04:46:53.883Z,13.30
2022-08-20T04:49:25.052Z,12.20
2022-08-20T04:51:53.278Z,13.67
2022-08-20T04:54:22.973Z,12.40
2022-08-20T04:56:50.630Z,12.77
2022-08-20T04:59:18.832Z,12.63
2022-08-20T05:01:46.551Z,12.13
2022-08-20T05:04:14.858Z,12.07
2022-08-20T05:06:42.653Z,11.80
2022-08-20T05:09:11.054Z,11.37
2022-08-20T05:11:40.065Z,13.87
2022-08-20T05:14:10.121Z,13.53
2022-08-20T05:16:38.987Z,12.77
2022-08-20T05:19:08.978Z,12.40
2022-08-20T05:21:37.108Z,12.60
2022-08-20T05:24:05.994Z,11.77
2022-08-20T05:26:34.267Z,11.50
2022-08-20T05:29:05.551Z,12.07
2022-08-20T05:31:34.608Z,10.80
2022-08-20T05:34:03.460Z,11.63
2022-08-20T05:36:31.151Z,10.80
2022-08-20T05:38:59.375Z,10.70
2022-08-20T05:41:30.301Z,11.47
2022-08-20T05:44:01.569Z,11.37
2022-08-20T05:46:32.198Z,12.40
2022-08-20T05:49:01.354Z,10.27
2022-08-20T05:51:29.711Z,10.87
2022-08-20T05:53:59.233Z,10.80
2022-08-20T05:56:30.298Z,11.00
2022-08-20T05:58:59.218Z,11.67
2022-08-20T06:01:26.912Z,10.37
2022-08-20T06:04:13.723Z,10.00
2022-08-20T06:06:45.585Z,10.60
2022-08-20T06:09:15.811Z,9.60
2022-08-20T06:11:43.472Z,10.37
2022-08-20T06:14:11.947Z,10.23
2022-08-20T06:16:46.757Z,9.67
2022-08-20T06:19:27.279Z,10.00
2022-08-20T06:22:00.400Z,9.13
2022-08-20T06:24:28.175Z,9.17
2022-08-20T06:26:57.282Z,9.83
2022-08-20T06:29:25.512Z,10.50
2022-08-20T06:31:53.407Z,10.53
2022-08-20T06:34:21.113Z,8.80
2022-08-20T06:36:50.093Z,8.73
2022-08-20T06:39:18.458Z,9.83
2022-08-20T06:41:46.460Z,8.60
2022-08-20T06:44:14.749Z,11.83
2022-08-20T06:46:43.656Z,9.10
2022-08-20T06:49:12.294Z,9.93
2022-08-20T06:51:41.461Z,9.47
2022-08-20T06:54:10.529Z,8.43
2022-08-20T06:56:38.459Z,9.30
2022-08-20T06:59:06.090Z,7.97
2022-08-20T07:01:34.345Z,8.80
2022-08-20T07:04:02.422Z,7.23
2022-08-20T07:06:31.111Z,7.77
2022-08-20T07:08:58.787Z,9.43
2022-08-20T07:11:28.926Z,7.43
2022-08-20T07:13:57.934Z,6.50
2022-08-20T07:16:26.521Z,6.50
2022-08-20T07:18:54.156Z,9.13
2022-08-20T07:21:21.859Z,7.20
2022-08-20T07:23:49.868Z,6.93
2022-08-20T07:26:18.079Z,7.03
2022-08-20T07:28:47.487Z,5.97
2022-08-20T07:31:34.995Z,6.57
2022-08-20T07:34:03.488Z,6.17
2022-08-20T07:36:31.801Z,8.23
2022-08-20T07:38:59.647Z,7.17
2022-08-20T07:41:34.648Z,7.67
2022-08-20T07:44:04.599Z,6.43
2022-08-20T07:46:32.733Z,6.07
2022-08-20T07:49:00.461Z,8.17
2022-08-20T07:51:29.099Z,7.03
2022-08-20T07:53:58.190Z,6.83
2022-08-20T07:56:26.604Z,7.73
2022-08-20T07:58:59.064Z,7.63
2022-08-20T08:01:30.690Z,5.80
2022-08-20T08:03:59.259Z,5.83
2022-08-20T08:06:31.387Z,6.57
2022-08-20T08:09:04.000Z,6.10
2022-08-20T08:11:34.115Z,6.97
2022-08-20T08:14:02.995Z,6.17
2022-08-20T08:16:32.731Z,6.40
2022-08-20T08:19:02.051Z,6.37
2022-08-20T08:21:32.087Z,7.67
2022-08-20T08:24:00.437Z,5.50
2022-08-20T08:26:29.025Z,6.23
2022-08-20T08:28:58.098Z,7.03
2022-08-20T08:31:26.779Z,6.07
2022-08-20T08:33:56.218Z,5.43
2022-08-20T08:36:24.693Z,6.30
2022-08-20T08:38:52.302Z,5.80
2022-08-20T08:41:22.539Z,5.43
2022-08-20T08:43:53.101Z,7.03
2022-08-20T08:46:28.659Z,6.57
2022-08-20T08:49:01.547Z,6.70
2022-08-20T08:51:36.363Z,7.17
2022-08-20T08:54:07.089Z,6.53
2022-08-20T08:56:36.527Z,6.40
2022-08-20T08:59:08.542Z,6.17
2022-08-20T09:01:55.020Z,5.47
2022-08-20T09:04:31.559Z,7.07
2022-08-20T09:07:00.624Z,6.63
2022-08-20T09:09:32.365Z,8.30
2022-08-20T09:12:05.943Z,5.33
2022-08-20T09:14:34.043Z,7.47
2022-08-20T09:17:02.365Z,5.23
2022-08-20T09:19:31.879Z,6.43
2022-08-20T09:22:00.222Z,5.37
2022-08-20T09:24:27.888Z,6.97
2022-08-20T09:26:55.978Z,5.87
2022-08-20T09:29:23.615Z,5.63
2022-08-20T09:31:51.337Z,5.30
2022-08-20T09:34:20.205Z,4.83
2022-08-20T09:36:49.204Z,6.17
2022-08-20T09:39:16.871Z,4.93
2022-08-20T09:41:45.014Z,5.10
2022-08-20T09:44:12.703Z,6.97
2022-08-20T09:46:41.085Z,5.37
2022-08-20T09:49:10.327Z,5.27
2022-08-20T09:51:39.325Z,5.37
2022-08-20T09:54:08.387Z,6.50
2022-08-20T09:56:37.255Z,4.33
2022-08-20T09:59:05.107Z,5.83
2022-08-20T10:01:34.138Z,5.50
2022-08-20T10:04:01.916Z,4.53
2022-08-20T10:06:32.417Z,4.57
2022-08-20T10:09:04.381Z,4.47
2022-08-20T10:11:34.303Z,5.47
2022-08-20T10:14:01.957Z,4.30
2022-08-20T10:16:30.405Z,3.43
2022-08-20T10:18:58.184Z,4.83
2022-08-20T10:21:26.498Z,3.83
2022-08-20T10:23:54.139Z,4.60
2022-08-20T10:26:21.923Z,4.40
2022-08-20T10:28:50.993Z,4.37
2022-08-20T10:31:18.932Z,4.57
2022-08-20T10:33:46.921Z,4.57
2022-08-20T10:36:17.261Z,5.30
2022-08-20T10:38:46.325Z,4.10
2022-08-20T10:41:14.009Z,5.30
2022-08-20T10:43:42.608Z,4.50
2022-08-20T10:46:11.567Z,4.53
2022-08-20T10:48:39.903Z,4.93
2022-08-20T10:51:07.811Z,4.73
2022-08-20T10:53:37.084Z,4.33
2022-08-20T10:56:05.201Z,5.00
2022-08-20T10:58:39.751Z,4.03
2022-08-20T11:01:08.409Z,4.65
2022-08-20T11:03:38.358Z,4.00
2022-08-20T11:06:06.386Z,3.92
2022-08-20T11:08:35.922Z,3.07
2022-08-20T11:11:04.672Z,3.17
2022-08-20T11:13:32.754Z,4.32
2022-08-20T11:16:00.394Z,3.05
2022-08-20T11:18:28.060Z,3.73
2022-08-20T11:20:57.522Z,3.67
2022-08-20T11:23:25.533Z,3.87
2022-08-20T11:25:53.192Z,3.00
2022-08-20T11:28:31.969Z,2.40
2022-08-20T11:31:00.696Z,2.35
2022-08-20T11:33:29.446Z,2.75
2022-08-20T11:35:58.461Z,2.55
2022-08-20T11:38:26.968Z,2.15
2022-08-20T11:40:54.635Z,1.98
2022-08-20T11:43:22.656Z,2.43
2022-08-20T11:45:52.130Z,3.33
2022-08-20T11:48:20.707Z,2.30
2022-08-20T11:50:49.821Z,2.17
2022-08-20T11:53:19.761Z,1.67
2022-08-20T11:55:48.974Z,1.40
2022-08-20T11:58:17.139Z,1.00
2022-08-20T12:00:44.790Z,1.33
2022-08-20T12:03:13.494Z,0.60
2022-08-20T12:05:43.545Z,1.33
2022-08-20T12:08:27.319Z,0.77
2022-08-20T12:10:58.333Z,3.27
2022-08-20T12:13:47.030Z,3.33
2022-08-20T12:16:15.061Z,1.77
2022-08-20T12:18:43.555Z,2.27
2022-08-20T12:21:11.283Z,1.20
2022-08-20T12:23:39.197Z,1.60
2022-08-20T12:26:08.269Z,1.50
2022-08-20T12:28:36.709Z,1.43
2022-08-20T12:31:04.405Z,1.63
2022-08-20T12:33:32.586Z,1.70
2022-08-20T12:36:00.416Z,1.77
2022-08-20T12:38:28.509Z,2.30
2022-08-20T12:40:56.211Z,1.50
2022-08-20T12:43:25.462Z,1.50
2022-08-20T12:45:53.132Z,2.13
2022-08-20T12:48:21.482Z,1.83
2022-08-20T12:50:50.017Z,2.13
2022-08-20T12:53:18.793Z,2.47
2022-08-20T12:55:46.969Z,2.37
2022-08-20T12:58:15.155Z,2.33
2022-08-20T13:00:51.020Z,2.90
2022-08-20T13:03:19.781Z,2.17
2022-08-20T13:05:47.579Z,0.63
2022-08-20T13:08:18.064Z,0.57
2022-08-20T13:10:46.613Z,0.60
2022-08-20T13:13:20.317Z,0.67
2022-08-20T13:15:51.141Z,0.80
2022-08-20T13:18:19.732Z,0.90
2022-08-20T13:20:47.978Z,1.10
2022-08-20T13:23:16.300Z,0.77
2022-08-20T13:25:44.289Z,0.60
2022-08-20T13:28:11.919Z,0.90
2022-08-20T13:30:41.033Z,1.10
2022-08-20T13:33:10.097Z,1.10
2022-08-20T13:35:38.413Z,1.27
2022-08-20T13:38:06.295Z,1.30
2022-08-20T13:40:34.292Z,1.47
2022-08-20T13:43:06.496Z,1.47
2022-08-20T13:45:35.027Z,1.50
2022-08-20T13:48:02.697Z,1.77
2022-08-20T13:50:34.410Z,1.47
2022-08-20T13:53:02.184Z,1.87
2022-08-20T13:55:31.641Z,1.90
2022-08-20T13:58:06.220Z,1.20
2022-08-20T14:00:35.678Z,1.47
2022-08-20T14:03:06.294Z,2.30
2022-08-20T14:05:35.761Z,0.87
2022-08-20T14:08:08.930Z,0.43
2022-08-20T14:10:37.497Z,0.80
2022-08-20T14:13:06.682Z,0.50
2022-08-20T14:15:35.226Z,0.40
2022-08-20T14:18:03.589Z,0.40
2022-08-20T14:20:33.805Z,0.40
2022-08-20T14:23:03.273Z,0.20
2022-08-20T14:25:32.395Z,0.60
2022-08-20T14:28:09.969Z,0.13
2022-08-20T14:30:37.959Z,0.20
2022-08-20T14:33:05.621Z,0.20
2022-08-20T14:35:34.462Z,0.10
2022-08-20T14:38:05.333Z,0.30
2022-08-20T14:40:33.975Z,0.30
2022-08-20T14:43:02.175Z,1.53
2022-08-20T14:45:29.813Z,0.60
2022-08-20T14:47:59.661Z,0.33
2022-08-20T14:50:30.209Z,0.53
2022-08-20T14:52:58.781Z,0.30
2022-08-20T14:55:30.533Z,0.53
2022-08-20T14:57:58.184Z,0.70
2022-08-20T15:00:28.699Z,0.33
2022-08-20T15:02:58.013Z,0.33
2022-08-20T15:05:26.919Z,0.67
2022-08-20T15:07:54.757Z,0.83
2022-08-20T15:10:24.976Z,0.50
2022-08-20T15:12:53.997Z,0.67
2022-08-20T15:15:22.615Z,0.70
2022-08-20T15:17:53.711Z,0.93
2022-08-20T15:20:25.632Z,1.00
2022-08-20T15:22:54.032Z,0.60
2022-08-20T15:25:24.859Z,0.90
2022-08-20T15:27:56.128Z,0.47
2022-08-20T15:30:30.108Z,0.50
2022-08-20T15:32:58.262Z,1.17
2022-08-20T15:35:28.463Z,0.80
2022-08-20T15:37:57.663Z,0.73
2022-08-20T15:40:29.000Z,0.83
2022-08-20T15:42:58.893Z,1.73
2022-08-20T15:45:27.859Z,0.77
2022-08-20T15:48:00.775Z,0.60
2022-08-20T15:50:39.452Z,1.13
2022-08-20T15:53:11.433Z,1.33
2022-08-20T15:55:45.336Z,0.83
2022-08-20T15:58:22.535Z,0.60
2022-08-20T16:00:55.927Z,1.10
2022-08-20T16:04:06.573Z,0.80
2022-08-20T16:06:35.255Z,0.80
2022-08-20T16:09:15.287Z,1.03
2022-08-20T16:11:50.392Z,1.40
2022-08-20T16:14:22.551Z,0.87
2022-08-20T16:17:01.339Z,0.73
2022-08-20T16:19:36.620Z,0.70
2022-08-20T16:22:06.932Z,1.07
2022-08-20T16:24:34.825Z,0.90
2022-08-20T16:27:15.136Z,0.70
2022-08-20T16:29:54.065Z,0.60
2022-08-20T16:32:34.215Z,1.10
2022-08-20T16:35:08.860Z,0.50
2022-08-20T16:37:45.466Z,0.90
2022-08-20T16:40:22.669Z,1.77
2022-08-20T16:42:53.489Z,0.67
2022-08-20T16:45:26.737Z,0.50
2022-08-20T16:47:58.083Z,0.77
2022-08-20T16:50:30.174Z,0.80
2022-08-20T16:52:58.192Z,0.50
2022-08-20T16:55:26.754Z,1.13
2022-08-20T16:57:54.715Z,0.47
2022-08-20T17:00:30.404Z,0.53
2022-08-20T17:03:00.302Z,0.70
2022-08-20T17:05:31.160Z,0.30
2022-08-20T17:08:02.235Z,0.40
2022-08-20T17:10:32.224Z,0.53
2022-08-20T17:13:04.631Z,0.67
2022-08-20T17:15:36.536Z,0.60
2022-08-20T17:18:21.119Z,0.70
2022-08-20T17:20:49.397Z,1.27
2022-08-20T17:23:18.866Z,0.50
2022-08-20T17:25:57.986Z,1.00
2022-08-20T17:28:26.559Z,0.93
2022-08-20T17:30:57.094Z,1.07
2022-08-20T17:33:30.897Z,1.03
2022-08-20T17:36:01.569Z,0.60
2022-08-20T17:38:35.856Z,0.70
2022-08-20T17:41:12.832Z,0.53
2022-08-20T17:43:45.566Z,0.80
2022-08-20T17:46:17.455Z,0.43
2022-08-20T17:48:47.639Z,0.60
2022-08-20T17:51:19.401Z,0.50
2022-08-20T17:53:52.573Z,0.47
2022-08-20T17:56:22.864Z,0.70
2022-08-20T17:58:55.941Z,0.73
2022-08-20T18:01:27.551Z,0.60
2022-08-20T18:03:55.289Z,1.13
2022-08-20T18:06:31.097Z,1.20
2022-08-20T18:09:05.582Z,0.87
2022-08-20T18:11:40.725Z,0.87
2022-08-20T18:14:19.155Z,1.07
2022-08-20T18:17:00.144Z,0.60
2022-08-20T18:19:49.786Z,0.70
2022-08-20T18:22:21.150Z,0.70
2022-08-20T18:24:54.764Z,1.10
2022-08-20T18:27:25.599Z,0.70
2022-08-20T18:30:00.085Z,0.80
2022-08-20T18:32:33.301Z,0.80
2022-08-20T18:35:13.097Z,0.73
2022-08-20T18:37:41.578Z,0.50
2022-08-20T18:40:19.872Z,0.77
2022-08-20T18:42:48.111Z,0.87
2022-08-20T18:45:28.911Z,0.53
2022-08-20T18:47:59.080Z,0.67
2022-08-20T18:50:32.710Z,0.50
2022-08-20T18:53:12.047Z,0.67
2022-08-20T18:55:42.729Z,0.43
2022-08-20T18:58:30.719Z,1.73
2022-08-20T19:00:59.320Z,0.80
2022-08-20T19:03:32.523Z,0.50
2022-08-20T19:06:10.650Z,0.73
2022-08-20T19:08:49.182Z,0.40
2022-08-20T19:11:46.691Z,0.53
2022-08-20T19:14:33.499Z,0.70
2022-08-20T19:17:07.143Z,0.50
2022-08-20T19:19:38.234Z,0.47
2022-08-20T19:22:06.985Z,0.50
2022-08-20T19:24:38.663Z,0.70
2022-08-20T19:27:10.377Z,1.10
2022-08-20T19:29:41.943Z,0.57
2022-08-20T19:32:19.019Z,0.50
2022-08-20T19:34:53.544Z,0.87
2022-08-20T19:37:34.950Z,0.90
2022-08-20T19:40:06.489Z,1.53
2022-08-20T19:42:41.474Z,0.73
2022-08-20T19:45:18.038Z,0.60
2022-08-20T19:47:53.358Z,0.80
2022-08-20T19:50:29.386Z,1.27
2022-08-20T19:53:06.987Z,0.40
2022-08-20T19:55:36.822Z,0.40
2022-08-20T19:58:09.282Z,0.60
2022-08-20T20:00:44.984Z,0.30
2022-08-20T20:03:17.234Z,0.40
2022-08-20T20:05:55.063Z,0.87
2022-08-20T20:08:26.467Z,0.70
2022-08-20T20:10:56.437Z,0.50
2022-08-20T20:13:27.660Z,0.50
2022-08-20T20:16:02.651Z,1.03
2022-08-20T20:18:34.770Z,0.40
2022-08-20T20:21:14.672Z,0.87
2022-08-20T20:23:46.904Z,0.70
2022-08-20T20:26:19.820Z,0.40
2022-08-20T20:28:50.471Z,0.80
2022-08-20T20:31:24.742Z,0.50
2022-08-20T20:33:55.896Z,0.33
2022-08-20T20:36:36.218Z,0.30
2022-08-20T20:39:12.393Z,0.50
2022-08-20T20:41:52.250Z,0.67
2022-08-20T20:44:24.449Z,0.33
2022-08-20T20:46:56.544Z,0.70
2022-08-20T20:49:27.173Z,0.57
2022-08-20T20:52:01.172Z,0.70
2022-08-20T20:54:40.457Z,0.80
2022-08-20T20:57:10.586Z,0.53
2022-08-20T20:59:39.046Z,0.63
2022-08-20T21:02:06.813Z,0.50
2022-08-20T21:04:36.838Z,0.50
2022-08-20T21:07:11.177Z,0.73
2022-08-20T21:09:40.451Z,0.57
2022-08-20T21:12:09.849Z,0.40
2022-08-20T21:14:38.335Z,0.60
2022-08-20T21:17:10.250Z,0.30
2022-08-20T21:19:42.349Z,0.60
2022-08-20T21:22:14.500Z,0.40
2022-08-20T21:24:42.442Z,0.67
2022-08-20T21:27:12.543Z,0.50
2022-08-20T21:29:41.202Z,0.57
2022-08-20T21:32:12.464Z,0.50
2022-08-20T21:34:43.655Z,1.07
2022-08-20T21:37:11.463Z,0.87
2022-08-20T21:39:41.604Z,0.77
2022-08-20T21:42:16.108Z,0.80
2022-08-20T21:44:56.907Z,0.80
2022-08-20T21:47:24.808Z,0.60
2022-08-20T21:49:52.771Z,0.87
2022-08-20T21:52:20.422Z,0.87
2022-08-20T21:54:49.543Z,0.90
2022-08-20T21:57:20.790Z,0.70
2022-08-20T21:59:49.870Z,0.60
2022-08-20T22:02:19.000Z,1.03
2022-08-20T22:04:46.993Z,0.70
2022-08-20T22:07:16.303Z,0.87
2022-08-20T22:09:44.007Z,0.90
2022-08-20T22:12:16.340Z,0.70
2022-08-20T22:14:44.521Z,0.93
2022-08-20T22:17:12.441Z,0.87
2022-08-20T22:19:40.741Z,1.67
2022-08-20T22:22:10.614Z,0.90
2022-08-20T22:24:39.172Z,0.60
2022-08-20T22:27:07.753Z,1.07
2022-08-20T22:29:37.470Z,1.10
2022-08-20T22:32:05.740Z,0.60
2022-08-20T22:34:36.437Z,0.70
2022-08-20T22:37:05.477Z,0.77
2022-08-20T22:39:33.819Z,0.60
2022-08-20T22:42:01.472Z,0.80
2022-08-20T22:44:30.034Z,1.17
2022-08-20T22:47:08.928Z,0.87
2022-08-20T22:49:41.469Z,0.70
2022-08-20T22:52:10.131Z,1.33
2022-08-20T22:54:38.923Z,0.60
2022-08-20T22:57:12.259Z,0.83
2022-08-20T22:59:52.900Z,0.80
2022-08-20T23:02:23.576Z,0.57
2022-08-20T23:04:51.989Z,0.37
2022-08-20T23:07:20.078Z,0.60
2022-08-20T23:09:47.725Z,0.63
2022-08-20T23:12:15.407Z,0.50
2022-08-20T23:14:43.736Z,0.70
2022-08-20T23:17:14.084Z,0.80
2022-08-20T23:19:43.580Z,0.63
2022-08-20T23:22:11.399Z,0.93
2022-08-20T23:24:39.812Z,1.63
2022-08-20T23:27:09.209Z,0.80
2022-08-20T23:29:37.601Z,0.60
2022-08-20T23:32:05.486Z,0.60
2022-08-20T23:34:33.226Z,0.60
2022-08-20T23:37:03.694Z,0.70
2022-08-20T23:39:32.061Z,0.80
2022-08-20T23:42:00.817Z,0.77
2022-08-20T23:44:29.220Z,0.80
2022-08-20T23:46:59.749Z,0.47
2022-08-20T23:49:28.355Z,0.40
2022-08-20T23:51:56.011Z,2.10
2022-08-20T23:54:24.992Z,0.53
2022-08-20T23:56:56.947Z,0.43
2022-08-20T23:59:25.368Z,0.73
